Aérodrome :
LOGIN :

S'inscrire | Disclaimer

   EN    FR    IT 

 










Légende :    VFR   VFR Marginal   IFR   IFR Intensif   IFR Très Intensif
Visi : 
Plafond : 
>= 8 km
>= 3000ft
5 à 8 km
1000 à 3000 ft
1500m à 5 km
500 à 1000 ft
800 à 1500m
200 à 500 ft
< 800m
< 200 ft
Symboles :   Orages  Brouillard  Fortes neiges  Fortes précipitations  Vent > 20 kt
SIGMETs :   Divers  Orages  Givrage  Turbulence  Onde Orograph.  Cendres Volcan.






- Altitude de l'aérodrome : 245 ft


ETHS - Fassberg

DERNIER METAR :
  • 290720Z 23001KT 9999 FEW050 09/07 Q1015 BLU+BLU+

METARs EXPIRÉS :
  • 290620Z 10001KT 9999 FEW050 03/03 Q1015 BLU+BLU+
  • 290520Z 14001KT 9999 MIFG FEW120 02/01 Q1014 BLU+BLU+ TEMPO GRN

TAF TAF ETHS
Valide du 29 à 08h jusqu'au 29 à 17h UTC


290720Z 2908/2917 16005KT 9999 NSW FEW050



MET'MAP, la Météo Aéronautique d'un coup d'oeil ! - Copyright ORBIFLY Décembre 2007 - Disclaimer

ORBIFLY MET'MAP TEAM :

Programmation & Développement : Alexandra Zaïnal
Sur une idée originale de : Baudouin d'Aumeries
Assistance à la programmation : Marc-Olivier Méhu
Soutien technique & logistique : Manuel Goepfert

Contact : metmap@orbifly.com




SOURCES & CREDITS :

   NOAA